createdAt,value
2022-08-16T00:03:43.636Z,0.00
2022-08-16T00:08:45.875Z,0.00
2022-08-16T00:13:43.503Z,0.00
2022-08-16T00:18:44.453Z,0.00
2022-08-16T00:23:46.299Z,0.00
2022-08-16T00:28:43.334Z,0.00
2022-08-16T00:33:50.150Z,0.00
2022-08-16T00:38:44.244Z,0.00
2022-08-16T00:43:44.331Z,0.00
2022-08-16T00:48:45.605Z,0.00
2022-08-16T00:53:43.064Z,0.00
2022-08-16T00:58:43.018Z,0.00
2022-08-16T01:03:42.954Z,0.00
2022-08-16T01:08:42.922Z,0.00
2022-08-16T01:13:42.868Z,0.00
2022-08-16T01:18:42.835Z,0.00
2022-08-16T01:23:58.208Z,0.00
2022-08-16T01:28:45.585Z,0.00
2022-08-16T01:33:44.651Z,0.00
2022-08-16T01:38:53.272Z,0.00
2022-08-16T01:43:43.543Z,0.00
2022-08-16T01:48:42.459Z,0.00
2022-08-16T01:53:42.408Z,0.00
2022-08-16T01:58:47.999Z,0.00
2022-08-16T02:03:43.312Z,0.00
2022-08-16T02:08:42.259Z,0.00
2022-08-16T02:13:42.213Z,0.00
2022-08-16T02:18:44.153Z,0.00
2022-08-16T02:23:43.082Z,0.00
2022-08-16T02:28:45.194Z,0.00
2022-08-16T02:33:44.365Z,0.00
2022-08-16T02:38:43.919Z,0.00
2022-08-16T02:43:42.864Z,0.00
2022-08-16T02:48:49.225Z,0.00
2022-08-16T02:53:46.093Z,0.00
2022-08-16T02:58:44.870Z,0.00
2022-08-16T03:04:29.687Z,0.00
2022-08-16T03:08:52.114Z,0.00
2022-08-16T03:13:42.564Z,0.00
2022-08-16T03:18:41.515Z,0.00
2022-08-16T03:23:41.456Z,0.00
2022-08-16T03:28:41.384Z,0.00
2022-08-16T03:33:41.332Z,0.00
2022-08-16T03:38:41.294Z,0.00
2022-08-16T03:43:51.255Z,0.00
2022-08-16T03:48:45.564Z,0.00
2022-08-16T03:53:41.125Z,0.00
2022-08-16T03:58:41.084Z,0.00
2022-08-16T04:03:41.003Z,0.00
2022-08-16T04:08:40.951Z,5.62
2022-08-16T04:13:59.995Z,11.25
2022-08-16T04:18:41.838Z,16.88
2022-08-16T04:23:40.835Z,28.12
2022-08-16T04:28:53.502Z,45.00
2022-08-16T04:33:50.884Z,56.25
2022-08-16T04:38:41.639Z,73.12
2022-08-16T04:43:43.697Z,90.00
2022-08-16T04:48:40.516Z,112.50
2022-08-16T04:53:41.405Z,140.62
2022-08-16T04:58:45.973Z,157.50
2022-08-16T05:03:41.742Z,174.38
2022-08-16T05:08:40.293Z,202.50
2022-08-16T05:13:42.580Z,236.25
2022-08-16T05:18:40.197Z,264.38
2022-08-16T05:23:40.130Z,292.50
2022-08-16T05:28:40.096Z,393.75
2022-08-16T05:33:42.319Z,455.62
2022-08-16T05:38:40.107Z,382.50
2022-08-16T05:43:46.547Z,438.75
2022-08-16T05:48:40.868Z,618.75
2022-08-16T05:53:41.360Z,759.38
2022-08-16T05:58:39.765Z,894.38
2022-08-16T06:03:39.718Z,708.75
2022-08-16T06:08:42.224Z,804.38
2022-08-16T06:13:42.127Z,945.00
2022-08-16T06:18:41.534Z,1074.38
2022-08-16T06:23:39.477Z,1175.62
2022-08-16T06:28:39.475Z,1327.50
2022-08-16T06:33:41.379Z,1434.38
2022-08-16T06:38:39.316Z,1552.50
2022-08-16T06:43:40.266Z,1631.25
2022-08-16T06:48:42.851Z,1704.38
2022-08-16T06:53:39.349Z,1620.00
2022-08-16T06:58:39.121Z,1856.25
2022-08-16T07:03:55.290Z,1935.00
2022-08-16T07:08:40.004Z,2019.38
2022-08-16T07:14:00.501Z,2092.50
2022-08-16T07:18:39.965Z,2250.00
2022-08-16T07:23:39.925Z,2441.25
2022-08-16T07:28:38.923Z,2469.38
2022-08-16T07:33:52.296Z,2548.12
2022-08-16T07:38:39.684Z,2503.12
2022-08-16T07:43:40.403Z,2610.00
2022-08-16T07:48:38.693Z,2823.75
2022-08-16T07:53:43.865Z,2581.88
2022-08-16T07:58:39.498Z,2795.62
2022-08-16T08:03:39.979Z,2857.50
2022-08-16T08:08:49.819Z,3031.88
2022-08-16T08:13:42.621Z,3223.12
2022-08-16T08:18:38.301Z,3195.00
2022-08-16T08:23:42.533Z,3211.88
2022-08-16T08:28:38.321Z,3335.62
2022-08-16T08:33:39.977Z,3341.25
2022-08-16T08:38:44.082Z,3560.62
2022-08-16T08:43:41.526Z,3431.25
2022-08-16T08:48:38.121Z,3397.50
2022-08-16T08:53:38.961Z,3521.25
2022-08-16T08:58:37.881Z,3729.38
2022-08-16T09:03:37.967Z,3853.12
2022-08-16T09:08:37.996Z,3791.25
2022-08-16T09:13:37.825Z,3898.12
2022-08-16T09:18:38.768Z,3853.12
2022-08-16T09:23:37.769Z,3988.12
2022-08-16T09:29:13.795Z,4016.25
2022-08-16T09:33:39.300Z,3965.62
2022-08-16T09:38:37.487Z,4066.88
2022-08-16T09:43:58.837Z,4280.62
2022-08-16T09:48:44.667Z,4168.12
2022-08-16T09:53:38.367Z,4123.12
2022-08-16T09:58:41.600Z,4213.12
2022-08-16T10:03:38.376Z,4156.88
2022-08-16T10:08:59.728Z,4016.25
2022-08-16T10:13:38.180Z,4505.62
2022-08-16T10:19:00.292Z,3825.00
2022-08-16T10:23:38.081Z,3746.25
2022-08-16T10:28:40.314Z,4595.62
2022-08-16T10:33:40.443Z,4376.25
2022-08-16T10:38:37.119Z,3948.75
2022-08-16T10:43:36.906Z,4342.50
2022-08-16T10:48:36.837Z,4370.62
2022-08-16T10:53:36.818Z,4629.38
2022-08-16T10:58:36.764Z,4595.62
2022-08-16T11:03:41.860Z,4651.88
2022-08-16T11:08:41.931Z,4770.00
2022-08-16T11:18:54.902Z,4871.25
2022-08-16T11:23:37.569Z,4618.12
2022-08-16T11:29:12.676Z,4336.88
2022-08-16T11:33:53.243Z,4640.62
2022-08-16T11:38:55.301Z,5023.12
2022-08-16T11:43:37.384Z,4876.88
2022-08-16T11:48:36.326Z,5056.88
2022-08-16T11:53:36.285Z,4899.38
2022-08-16T11:58:36.225Z,5107.50
2022-08-16T12:03:36.226Z,4770.00
2022-08-16T12:08:36.186Z,4606.88
2022-08-16T12:13:36.148Z,4966.88
2022-08-16T12:18:36.057Z,4432.50
2022-08-16T12:23:36.025Z,4533.75
2022-08-16T12:28:36.957Z,4685.62
2022-08-16T12:33:44.494Z,4843.12
2022-08-16T12:38:41.647Z,3915.00
2022-08-16T12:43:36.994Z,5045.62
2022-08-16T12:48:36.991Z,5101.88
2022-08-16T12:53:35.981Z,4680.00
2022-08-16T12:58:49.251Z,4033.12
2022-08-16T13:03:40.070Z,1890.00
2022-08-16T13:08:36.338Z,1051.88
2022-08-16T13:13:35.692Z,1389.38
2022-08-16T13:18:35.907Z,2210.62
2022-08-16T13:23:35.880Z,2154.38
2022-08-16T13:28:35.608Z,4140.00
2022-08-16T13:33:37.838Z,3864.38
2022-08-16T13:38:37.628Z,3324.38
2022-08-16T13:43:35.312Z,1035.00
2022-08-16T13:48:42.954Z,2902.50
2022-08-16T13:53:36.294Z,2649.38
2022-08-16T13:58:54.082Z,2446.88
2022-08-16T14:03:37.042Z,2165.62
2022-08-16T14:08:35.075Z,2064.38
2022-08-16T14:13:35.084Z,2250.00
2022-08-16T14:18:35.391Z,2193.75
2022-08-16T14:23:34.968Z,2227.50
2022-08-16T14:28:34.971Z,1996.88
2022-08-16T14:33:34.890Z,1946.25
2022-08-16T14:38:37.410Z,967.50
2022-08-16T14:43:34.848Z,984.38
2022-08-16T14:48:35.938Z,1237.50
2022-08-16T14:53:35.752Z,810.00
2022-08-16T14:58:38.072Z,1029.38
2022-08-16T15:03:37.338Z,1687.50
2022-08-16T15:08:37.147Z,1417.50
2022-08-16T15:13:35.715Z,871.88
2022-08-16T15:18:34.534Z,669.38
2022-08-16T15:23:34.476Z,720.00
2022-08-16T15:28:34.379Z,731.25
2022-08-16T15:33:34.490Z,990.00
2022-08-16T15:39:05.582Z,973.12
2022-08-16T15:43:39.702Z,911.25
2022-08-16T15:48:35.239Z,798.75
2022-08-16T15:53:41.797Z,748.12
2022-08-16T15:58:38.615Z,731.25
2022-08-16T16:03:34.577Z,720.00
2022-08-16T16:08:34.020Z,703.12
2022-08-16T16:13:33.986Z,630.00
2022-08-16T16:18:33.874Z,585.00
2022-08-16T16:23:33.814Z,590.62
2022-08-16T16:29:06.290Z,618.75
2022-08-16T16:33:35.846Z,601.88
2022-08-16T16:38:33.665Z,545.62
2022-08-16T16:43:33.562Z,466.88
2022-08-16T16:48:34.756Z,416.25
2022-08-16T16:53:37.669Z,438.75
2022-08-16T16:58:36.663Z,495.00
2022-08-16T17:03:33.513Z,500.62
2022-08-16T17:08:33.276Z,438.75
2022-08-16T17:13:33.327Z,399.38
2022-08-16T17:19:16.851Z,376.88
2022-08-16T17:23:59.316Z,348.75
2022-08-16T17:28:57.691Z,331.88
2022-08-16T17:33:37.249Z,264.38
2022-08-16T17:38:43.713Z,253.12
2022-08-16T17:43:33.909Z,213.75
2022-08-16T17:48:32.951Z,174.38
2022-08-16T17:53:32.809Z,151.88
2022-08-16T17:58:33.115Z,135.00
2022-08-16T18:04:02.578Z,112.50
2022-08-16T18:08:33.637Z,101.25
2022-08-16T18:13:32.614Z,95.62
2022-08-16T18:18:32.591Z,73.12
2022-08-16T18:23:32.600Z,61.88
2022-08-16T18:28:32.561Z,56.25
2022-08-16T18:33:32.503Z,39.38
2022-08-16T18:38:35.081Z,28.12
2022-08-16T18:43:55.516Z,22.50
2022-08-16T18:48:33.222Z,11.25
2022-08-16T18:53:32.155Z,5.62
2022-08-16T18:58:32.114Z,0.00
2022-08-16T19:03:32.057Z,0.00
2022-08-16T19:08:32.177Z,0.00
2022-08-16T19:13:32.093Z,0.00
2022-08-16T19:18:36.730Z,0.00
2022-08-16T19:23:33.007Z,0.00
2022-08-16T19:28:50.466Z,0.00
2022-08-16T19:33:32.800Z,0.00
2022-08-16T19:38:31.677Z,0.00
2022-08-16T19:43:31.635Z,0.00
2022-08-16T19:48:31.568Z,0.00
2022-08-16T19:53:31.524Z,0.00
2022-08-16T19:58:32.582Z,0.00
2022-08-16T20:03:40.388Z,0.00
2022-08-16T20:08:38.319Z,0.00
2022-08-16T20:13:31.456Z,0.00
2022-08-16T20:18:31.389Z,0.00
2022-08-16T20:23:31.200Z,0.00
2022-08-16T20:28:49.987Z,0.00
2022-08-16T20:33:32.090Z,0.00
2022-08-16T20:38:31.052Z,0.00
2022-08-16T20:43:30.979Z,0.00
2022-08-16T20:48:30.934Z,0.00
2022-08-16T20:53:30.899Z,0.00
2022-08-16T20:58:30.810Z,0.00
2022-08-16T21:03:31.820Z,0.00
2022-08-16T21:08:52.287Z,0.00
2022-08-16T21:13:31.693Z,0.00
2022-08-16T21:18:30.701Z,0.00
2022-08-16T21:23:30.629Z,0.00
2022-08-16T21:28:36.828Z,0.00
2022-08-16T21:33:31.456Z,0.00
2022-08-16T21:38:31.141Z,0.00
2022-08-16T21:43:30.361Z,0.00
2022-08-16T21:48:34.870Z,0.00
2022-08-16T21:53:31.213Z,0.00
2022-08-16T21:58:30.162Z,0.00
2022-08-16T22:03:30.208Z,0.00
2022-08-16T22:08:30.138Z,0.00
2022-08-16T22:13:30.054Z,0.00
2022-08-16T22:18:29.961Z,0.00
2022-08-16T22:23:29.909Z,0.00
2022-08-16T22:28:29.857Z,0.00
2022-08-16T22:33:29.776Z,0.00
2022-08-16T22:38:53.701Z,0.00
2022-08-16T22:43:30.707Z,0.00
2022-08-16T22:48:29.642Z,0.00
2022-08-16T22:53:29.597Z,0.00
2022-08-16T22:58:36.749Z,0.00
2022-08-16T23:03:30.486Z,0.00
2022-08-16T23:08:38.168Z,0.00
2022-08-16T23:13:30.349Z,0.00
2022-08-16T23:18:29.299Z,0.00
2022-08-16T23:23:29.275Z,0.00
2022-08-16T23:28:29.300Z,0.00
2022-08-16T23:33:29.145Z,0.00
2022-08-16T23:38:38.352Z,0.00
2022-08-16T23:43:30.054Z,0.00
2022-08-16T23:48:29.989Z,0.00
2022-08-16T23:53:28.925Z,0.00
2022-08-16T23:58:28.878Z,0.00
